Time;durP1;ratioP1;P1;durP2;ratioP2;P2;SDS_P1;SDS_P2;PMS_P1;PMS_P2;Temp;Humidity;BMP_temperature;BMP_pressure;BME280_temperature;BME280_humidity;BME280_pressure;Samples;Min_cycle;Max_cycle;Signal;HPM_P1;HPM_P2
2022/09/21 00:00:25;;;;;;;8.97;4.40;;;;;;;7.71;91.46;102618.16;4993698;28;20211;-77
2022/09/21 00:02:51;;;;;;;9.80;3.60;;;;;;;7.67;91.64;102622.97;4984532;28;20246;-77
2022/09/21 00:05:17;;;;;;;8.40;3.87;;;;;;;7.67;91.91;102623.88;4989160;28;20600;-77
2022/09/21 00:07:43;;;;;;;6.47;3.43;;;;;;;7.68;90.99;102627.28;4987135;28;20188;-77
2022/09/21 00:10:09;;;;;;;7.67;3.67;;;;;;;7.63;91.55;102626.13;4988683;28;20187;-77
2022/09/21 00:12:37;;;;;;;7.67;3.70;;;;;;;7.62;91.80;102625.25;4989046;28;20188;-77
2022/09/21 00:15:08;;;;;;;7.40;3.70;;;;;;;7.63;91.45;102629.56;4987077;28;20238;-77
2022/09/21 00:17:35;;;;;;;5.20;3.70;;;;;;;7.56;92.15;102632.53;4978641;28;20292;-77
2022/09/21 00:20:02;;;;;;;9.93;5.60;;;;;;;7.58;93.19;102635.16;4985279;28;20247;-77
2022/09/21 00:22:28;;;;;;;9.03;4.47;;;;;;;7.57;93.29;102634.31;4983991;28;20674;-77
2022/09/21 00:24:54;;;;;;;7.20;4.80;;;;;;;7.49;94.12;102632.97;4983670;28;20193;-77
2022/09/21 00:27:20;;;;;;;8.03;3.97;;;;;;;7.48;92.89;102635.41;4980672;28;20670;-76
2022/09/21 00:29:47;;;;;;;10.93;4.23;;;;;;;7.45;92.99;102645.41;5004554;28;20197;-77
2022/09/21 00:32:14;;;;;;;6.80;4.10;;;;;;;7.35;92.05;102643.97;4970454;28;20211;-77
2022/09/21 00:34:40;;;;;;;7.30;3.50;;;;;;;7.35;92.09;102643.97;4976362;28;20646;-78
2022/09/21 00:37:08;;;;;;;4.60;3.43;;;;;;;7.33;91.94;102643.00;4984581;28;20216;-77
2022/09/21 00:39:33;;;;;;;6.77;4.00;;;;;;;7.25;92.05;102639.13;4975585;28;20192;-77
2022/09/21 00:41:59;;;;;;;8.80;3.90;;;;;;;7.23;91.93;102647.47;4981815;28;21453;-78
2022/09/21 00:44:27;;;;;;;6.73;3.70;;;;;;;7.21;92.14;102647.34;4978551;28;20195;-77
2022/09/21 00:46:56;;;;;;;6.33;3.60;;;;;;;7.21;91.60;102642.25;4980193;28;20201;-77
2022/09/21 00:49:23;;;;;;;7.40;3.77;;;;;;;7.19;91.43;102645.50;4976838;28;20198;-75
2022/09/21 00:51:52;;;;;;;5.20;3.50;;;;;;;7.14;91.98;102644.34;4982455;28;20705;-78
2022/09/21 00:54:28;;;;;;;5.60;3.10;;;;;;;7.12;91.92;102643.34;4976783;28;20188;-76
2022/09/21 00:56:55;;;;;;;5.37;3.23;;;;;;;7.08;92.12;102644.84;4990468;28;20237;-77
2022/09/21 00:59:21;;;;;;;5.70;3.50;;;;;;;7.02;91.47;102643.56;4980617;28;20705;-77
2022/09/21 01:01:47;;;;;;;5.80;3.90;;;;;;;7.01;91.20;102650.31;4985230;28;20220;-77
2022/09/21 01:04:15;;;;;;;6.17;3.60;;;;;;;6.98;91.79;102646.69;4980265;28;20250;-78
2022/09/21 01:06:41;;;;;;;7.30;3.50;;;;;;;6.96;92.04;102653.38;4976030;28;20269;-77
2022/09/21 01:09:08;;;;;;;7.20;3.27;;;;;;;6.95;91.81;102655.03;4980469;28;20263;-77
2022/09/21 01:11:48;;;;;;;5.00;3.17;;;;;;;6.93;91.83;102654.06;4983679;28;20678;-77
2022/09/21 01:14:33;;;;;;;6.57;3.10;;;;;;;6.94;92.19;102653.28;4990387;28;20293;-78
2022/09/21 01:17:30;;;;;;;5.80;3.33;;;;;;;6.88;91.91;102650.34;4980784;28;20219;-77
2022/09/21 01:20:23;;;;;;;6.07;4.07;;;;;;;6.88;92.06;102652.00;4980973;28;20224;-77
2022/09/21 01:23:07;;;;;;;9.40;3.17;;;;;;;6.86;91.87;102654.44;4981526;28;20339;-78
2022/09/21 01:25:40;;;;;;;5.83;3.50;;;;;;;6.83;91.20;102658.47;4976777;28;20212;-77
2022/09/21 01:28:12;;;;;;;4.43;3.20;;;;;;;6.79;91.78;102652.31;4980868;28;20495;-78
2022/09/21 01:30:42;;;;;;;5.67;3.40;;;;;;;6.82;92.81;102656.72;4986758;28;20212;-78
2022/09/21 01:33:16;;;;;;;5.60;3.60;;;;;;;6.83;92.15;102656.81;4982366;28;20207;-77
2022/09/21 01:35:47;;;;;;;7.57;3.40;;;;;;;6.82;93.32;102661.81;4984287;28;20193;-77
2022/09/21 01:38:25;;;;;;;5.93;3.53;;;;;;;6.77;93.43;102665.75;4984601;28;20223;-76
2022/09/21 01:40:55;;;;;;;4.00;3.60;;;;;;;6.77;93.18;102664.06;4988074;28;20729;-77
2022/09/21 01:43:33;;;;;;;4.60;3.17;;;;;;;6.73;93.12;102658.69;4975687;28;20219;-77
2022/09/21 01:46:02;;;;;;;5.07;3.17;;;;;;;6.67;92.93;102659.16;4983339;28;20212;-77
2022/09/21 01:48:34;;;;;;;5.87;3.10;;;;;;;6.69;93.73;102661.81;4987095;28;20571;-78
2022/09/21 01:51:02;;;;;;;4.30;2.87;;;;;;;6.67;93.37;102656.63;4983124;28;20274;-77
2022/09/21 01:53:57;;;;;;;4.53;2.93;;;;;;;6.70;92.84;102658.47;4978382;28;20251;-77
2022/09/21 01:56:39;;;;;;;5.90;3.40;;;;;;;6.63;93.03;102663.97;4978004;28;20263;-78
2022/09/21 01:59:20;;;;;;;5.80;3.23;;;;;;;6.60;92.26;102666.31;4995311;28;20188;-78
2022/09/21 02:01:56;;;;;;;7.33;3.03;;;;;;;6.53;92.06;102666.69;4980276;28;20219;-76
2022/09/21 02:04:22;;;;;;;5.87;3.10;;;;;;;6.55;92.59;102675.31;4993680;28;20325;-77
2022/09/21 02:06:49;;;;;;;3.93;2.60;;;;;;;6.54;92.60;102671.03;4990195;28;20195;-77
2022/09/21 02:09:16;;;;;;;5.80;3.23;;;;;;;6.54;91.84;102671.03;4982818;28;20216;-76
2022/09/21 02:11:44;;;;;;;11.93;3.53;;;;;;;6.53;92.43;102675.22;4983108;28;20231;-76
2022/09/21 02:14:12;;;;;;;11.73;4.43;;;;;;;6.52;92.60;102672.56;4983835;28;20191;-77
2022/09/21 02:16:41;;;;;;;13.73;4.70;;;;;;;6.52;93.34;102672.56;4992342;28;20212;-77
2022/09/21 02:19:24;;;;;;;12.67;5.07;;;;;;;6.49;92.60;102668.16;4998271;28;20190;-77
2022/09/21 02:22:08;;;;;;;10.60;4.00;;;;;;;6.46;92.95;102662.91;4997650;28;20733;-76
2022/09/21 02:24:38;;;;;;;15.97;4.93;;;;;;;6.44;93.46;102666.13;4988080;28;20198;-77
2022/09/21 02:27:05;;;;;;;12.13;4.90;;;;;;;6.40;93.01;102667.56;4993960;28;20218;-76
2022/09/21 02:29:48;;;;;;;11.03;4.77;;;;;;;6.41;92.99;102669.31;4981488;28;20200;-77
2022/09/21 02:32:38;;;;;;;12.90;5.27;;;;;;;6.45;93.28;102670.41;4993195;28;20207;-76
2022/09/21 02:35:20;;;;;;;11.83;5.07;;;;;;;6.48;93.55;102670.59;4999342;28;20199;-77
2022/09/21 02:38:05;;;;;;;9.23;4.90;;;;;;;6.44;93.47;102671.22;4991571;28;20247;-76
2022/09/21 02:40:47;;;;;;;9.67;4.80;;;;;;;6.45;93.71;102675.50;4978316;28;20215;-77
2022/09/21 02:43:38;;;;;;;9.93;5.20;;;;;;;6.40;93.42;102666.69;4993921;28;20196;-77
2022/09/21 02:46:12;;;;;;;12.07;5.57;;;;;;;6.43;93.80;102674.50;4993980;28;20673;-77
2022/09/21 02:48:45;;;;;;;13.73;5.60;;;;;;;6.41;93.83;102671.84;4996366;28;20195;-78
2022/09/21 02:51:17;;;;;;;13.30;6.03;;;;;;;6.38;94.54;102668.25;4974481;28;20215;-77
2022/09/21 02:53:45;;;;;;;12.97;6.43;;;;;;;6.36;94.09;102669.81;4991561;28;20184;-77
2022/09/21 02:56:12;;;;;;;10.40;6.60;;;;;;;6.38;94.51;102669.13;4989867;28;20188;-77
2022/09/21 02:58:42;;;;;;;12.43;6.50;;;;;;;6.37;94.38;102669.94;4992942;28;20199;-77
2022/09/21 03:01:11;;;;;;;9.33;6.47;;;;;;;6.36;94.61;102670.69;4992555;28;20207;-77
2022/09/21 03:03:36;;;;;;;11.93;5.40;;;;;;;6.36;94.52;102680.00;4989228;28;20199;-77
2022/09/21 03:06:02;;;;;;;9.17;5.57;;;;;;;6.38;94.33;102678.41;4998770;28;20598;-77
2022/09/21 03:08:27;;;;;;;9.40;6.03;;;;;;;6.35;94.98;102683.31;4994766;28;20241;-77
2022/09/21 03:10:53;;;;;;;9.90;4.83;;;;;;;6.38;95.14;102680.97;4992330;28;20218;-77
2022/09/21 03:13:19;;;;;;;8.60;6.17;;;;;;;6.41;95.64;102687.13;5001620;28;20188;-77
2022/09/21 03:15:45;;;;;;;13.13;6.27;;;;;;;6.43;96.25;102684.69;4992367;28;20188;-76
2022/09/21 03:18:11;;;;;;;18.50;7.47;;;;;;;6.43;96.36;102690.66;5000089;28;20657;-77
2022/09/21 03:20:38;;;;;;;11.10;6.30;;;;;;;6.44;96.80;102694.09;4994591;28;20215;-77
2022/09/21 03:23:04;;;;;;;15.47;6.50;;;;;;;6.41;96.63;102692.22;4995692;28;20201;-78
2022/09/21 03:25:29;;;;;;;18.20;6.17;;;;;;;6.40;96.61;102690.47;4990028;28;20303;-77
2022/09/21 03:27:56;;;;;;;19.67;7.37;;;;;;;6.35;96.49;102696.03;4995153;28;20658;-77
2022/09/21 03:30:23;;;;;;;18.43;6.33;;;;;;;6.29;97.11;102701.59;4995207;28;20230;-77
2022/09/21 03:32:50;;;;;;;14.47;6.40;;;;;;;6.33;97.75;102689.97;5012827;28;20191;-78
2022/09/21 03:35:16;;;;;;;11.57;6.10;;;;;;;6.34;96.81;102704.44;4996258;28;20269;-77
2022/09/21 03:37:41;;;;;;;14.37;6.80;;;;;;;6.33;97.09;102705.22;5003928;28;20216;-77
2022/09/21 03:40:08;;;;;;;27.40;7.70;;;;;;;6.31;97.46;102707.66;5002386;28;20656;-77
2022/09/21 03:42:33;;;;;;;38.47;7.87;;;;;;;6.29;98.20;102700.72;4996077;28;20192;-77
2022/09/21 03:44:58;;;;;;;35.70;8.43;;;;;;;6.18;98.68;102705.06;5001234;28;20191;-77
2022/09/21 03:47:24;;;;;;;18.27;7.80;;;;;;;6.20;99.21;102701.00;4976889;28;20184;-77
2022/09/21 03:49:49;;;;;;;14.70;6.77;;;;;;;6.20;99.50;102700.09;4994706;28;20192;-77
2022/09/21 03:52:15;;;;;;;20.17;6.40;;;;;;;6.15;99.62;102697.25;4991905;28;20259;-77
2022/09/21 03:54:40;;;;;;;10.63;6.23;;;;;;;6.13;99.38;102703.88;4996735;28;20199;-77
2022/09/21 03:57:07;;;;;;;10.30;6.30;;;;;;;6.12;98.59;102698.72;4993967;28;20230;-77
2022/09/21 03:59:34;;;;;;;18.40;6.97;;;;;;;6.08;98.80;102699.31;5000043;28;20200;-77
2022/09/21 04:01:59;;;;;;;11.50;6.00;;;;;;;6.07;98.32;102706.03;4998700;28;20222;-78
2022/09/21 04:04:25;;;;;;;9.13;5.50;;;;;;;6.06;97.46;102713.56;5001345;28;20184;-77
2022/09/21 04:06:50;;;;;;;9.10;5.37;;;;;;;6.05;97.15;102715.22;4993909;28;20195;-78
2022/09/21 04:09:16;;;;;;;10.73;5.53;;;;;;;6.04;97.16;102710.03;4993342;28;20287;-77
2022/09/21 04:11:44;;;;;;;9.80;5.40;;;;;;;6.02;96.81;102711.56;4995699;28;20218;-77
2022/09/21 04:14:13;;;;;;;7.63;5.30;;;;;;;6.01;96.61;102709.81;4995084;28;20202;-77
2022/09/21 04:16:38;;;;;;;8.80;5.93;;;;;;;6.08;96.64;102714.56;4999159;28;20211;-77
2022/09/21 04:19:04;;;;;;;15.13;5.83;;;;;;;6.08;96.31;102706.94;4996430;28;20215;-77
2022/09/21 04:21:29;;;;;;;10.30;5.33;;;;;;;6.09;96.27;102709.59;4989012;28;20218;-77
2022/09/21 04:23:55;;;;;;;10.13;5.30;;;;;;;6.11;96.48;102713.09;4997770;28;20230;-76
2022/09/21 04:26:27;;;;;;;11.10;5.70;;;;;;;6.11;95.65;102708.00;5003409;28;20214;-77
2022/09/21 04:28:54;;;;;;;12.10;5.90;;;;;;;6.11;96.66;102705.47;5012849;28;20641;-77
2022/09/21 04:31:20;;;;;;;15.50;6.67;;;;;;;6.13;96.45;102710.66;4995037;28;20204;-76
2022/09/21 04:33:50;;;;;;;10.77;6.07;;;;;;;6.12;96.18;102709.75;4997234;28;20565;-77
2022/09/21 04:36:27;;;;;;;14.10;6.47;;;;;;;6.14;96.82;102708.22;4994937;28;20191;-77
2022/09/21 04:38:53;;;;;;;12.93;6.80;;;;;;;6.16;96.27;102713.38;4997900;28;20321;-77
2022/09/21 04:41:18;;;;;;;12.30;6.13;;;;;;;6.19;96.73;102717.03;4996989;28;20635;-77
2022/09/21 04:43:45;;;;;;;11.07;5.70;;;;;;;6.16;96.88;102716.81;4994120;28;20245;-77
2022/09/21 04:46:13;;;;;;;10.80;5.90;;;;;;;6.13;96.98;102713.19;4999654;28;20187;-77
2022/09/21 04:48:39;;;;;;;12.43;6.13;;;;;;;6.11;96.75;102715.63;4998359;28;20284;-77
2022/09/21 04:51:07;;;;;;;10.27;5.17;;;;;;;6.09;97.54;102714.66;4988500;28;20291;-77
2022/09/21 04:53:34;;;;;;;8.67;5.30;;;;;;;6.13;96.92;102725.91;5004892;28;20200;-77
2022/09/21 04:56:00;;;;;;;9.93;5.50;;;;;;;6.17;96.49;102722.81;4979150;28;20223;-76
2022/09/21 04:58:26;;;;;;;8.40;4.70;;;;;;;6.22;96.77;102721.44;4993112;28;20258;-77
2022/09/21 05:00:53;;;;;;;10.00;5.00;;;;;;;6.22;96.12;102724.84;4992140;28;20281;-77
2022/09/21 05:03:20;;;;;;;10.67;4.90;;;;;;;6.21;97.06;102729.88;4997421;28;20199;-77
2022/09/21 05:05:47;;;;;;;9.77;5.27;;;;;;;6.22;96.85;102729.94;4992612;28;20209;-77
2022/09/21 05:08:12;;;;;;;13.10;5.30;;;;;;;6.26;97.36;102731.91;4991035;28;20274;-76
2022/09/21 05:10:38;;;;;;;7.37;5.70;;;;;;;6.28;97.89;102737.09;4994726;28;20306;-76
2022/09/21 05:13:03;;;;;;;12.20;5.87;;;;;;;6.30;98.54;102736.44;4995483;28;20286;-76
2022/09/21 05:15:28;;;;;;;18.63;5.93;;;;;;;6.33;98.48;102729.00;4988400;28;20279;-76
2022/09/21 05:17:54;;;;;;;10.80;6.20;;;;;;;6.34;98.87;102730.75;4998982;28;20234;-76
2022/09/21 05:20:19;;;;;;;10.63;6.03;;;;;;;6.37;99.14;102730.97;4978661;28;20654;-76
2022/09/21 05:22:45;;;;;;;15.73;6.90;;;;;;;6.44;100.00;102732.28;4987342;28;20661;-76
2022/09/21 05:25:10;;;;;;;9.73;6.23;;;;;;;6.53;100.00;102732.84;4985984;28;20194;-78
2022/09/21 05:27:36;;;;;;;19.73;6.03;;;;;;;6.58;100.00;102734.91;4993841;28;20669;-78
2022/09/21 05:30:02;;;;;;;10.90;6.53;;;;;;;6.58;100.00;102737.47;4979865;28;20664;-78
2022/09/21 05:32:42;;;;;;;12.10;7.07;;;;;;;6.62;100.00;102736.88;4976861;28;20185;-77
2022/09/21 05:35:17;;;;;;;16.77;9.30;;;;;;;6.61;100.00;102736.78;4988572;28;20748;-77
2022/09/21 05:37:56;;;;;;;10.07;8.17;;;;;;;6.70;100.00;102733.19;4985616;28;20211;-77
2022/09/21 05:40:21;;;;;;;28.80;7.63;;;;;;;6.76;100.00;102738.66;4976660;28;20261;-77
2022/09/21 05:42:47;;;;;;;57.77;8.93;;;;;;;6.79;100.00;102740.53;4985914;28;20201;-77
2022/09/21 05:45:15;;;;;;;9.43;6.03;;;;;;;6.83;100.00;102738.28;4984339;28;20192;-77
2022/09/21 05:47:50;;;;;;;38.90;8.60;;;;;;;6.87;100.00;102741.91;4980072;28;20630;-77
2022/09/21 05:50:15;;;;;;;46.40;7.30;;;;;;;6.93;100.00;102740.66;4986001;28;20211;-77
2022/09/21 05:53:01;;;;;;;27.30;6.10;;;;;;;7.00;100.00;102744.47;4988787;28;20254;-77
2022/09/21 05:55:51;;;;;;;78.77;9.80;;;;;;;6.98;100.00;102740.91;4975486;28;20200;-78
2022/09/21 05:59:07;;;;;;;66.47;8.57;;;;;;;7.00;100.00;102747.00;4987624;28;20680;-76
2022/09/21 06:01:42;;;;;;;52.73;8.33;;;;;;;7.01;100.00;102748.75;4981328;28;20220;-77
2022/09/21 06:04:11;;;;;;;50.27;9.03;;;;;;;6.99;100.00;102751.22;4990310;28;20182;-77
2022/09/21 06:06:37;;;;;;;10.63;5.20;;;;;;;6.93;100.00;102748.28;4985459;28;20214;-77
2022/09/21 06:09:03;;;;;;;9.33;4.83;;;;;;;6.92;100.00;102743.97;4995494;28;20286;-77
2022/09/21 06:11:29;;;;;;;9.53;4.63;;;;;;;6.98;100.00;102751.09;4992498;28;20230;-75
2022/09/21 06:13:54;;;;;;;7.13;4.63;;;;;;;6.99;100.00;102745.22;4993770;28;20254;-77
2022/09/21 06:16:20;;;;;;;8.50;4.80;;;;;;;7.04;100.00;102746.44;4988202;28;20197;-76
2022/09/21 06:18:45;;;;;;;18.63;5.27;;;;;;;7.06;100.00;102753.38;4979688;28;20583;-75
2022/09/21 06:21:11;;;;;;;8.33;5.33;;;;;;;7.17;100.00;102752.38;4989011;28;20278;-76
2022/09/21 06:23:36;;;;;;;13.47;6.27;;;;;;;7.22;100.00;102755.22;4982295;28;20271;-77
2022/09/21 06:26:02;;;;;;;19.23;5.80;;;;;;;7.30;100.00;102751.47;4979588;28;20233;-76
2022/09/21 06:28:28;;;;;;;31.57;6.27;;;;;;;7.32;100.00;102763.53;4975784;28;20190;-76
2022/09/21 06:30:55;;;;;;;22.17;6.67;;;;;;;7.46;100.00;102766.97;4988690;28;20300;-77
2022/09/21 06:33:22;;;;;;;23.63;6.03;;;;;;;7.51;100.00;102761.34;4974697;28;20181;-76
2022/09/21 06:35:57;;;;;;;20.23;6.67;;;;;;;7.61;100.00;102762.81;4984822;28;20609;-76
2022/09/21 06:38:24;;;;;;;39.07;6.43;;;;;;;7.63;100.00;102761.22;4990873;28;20229;-76
2022/09/21 06:40:50;;;;;;;18.70;6.00;;;;;;;7.64;100.00;102753.69;4981923;28;20227;-76
2022/09/21 06:43:16;;;;;;;26.43;6.53;;;;;;;7.74;100.00;102762.78;5006422;28;20673;-76
2022/09/21 06:45:42;;;;;;;13.93;5.97;;;;;;;7.89;100.00;102761.16;4981212;28;20461;-76
2022/09/21 06:48:07;;;;;;;13.37;6.07;;;;;;;8.01;100.00;102757.69;4989000;28;20647;-75
2022/09/21 06:50:33;;;;;;;8.37;5.50;;;;;;;8.21;100.00;102757.22;4977513;28;20575;-77
2022/09/21 06:53:00;;;;;;;11.70;5.60;;;;;;;8.35;100.00;102755.50;4996881;28;20192;-76
2022/09/21 06:55:25;;;;;;;18.23;5.93;;;;;;;8.45;100.00;102758.69;4977610;28;20199;-76
2022/09/21 06:57:51;;;;;;;21.40;5.70;;;;;;;8.59;100.00;102762.94;4993002;28;20224;-75
2022/09/21 07:00:16;;;;;;;19.63;5.80;;;;;;;8.78;100.00;102763.19;4984934;28;20234;-76
2022/09/21 07:02:45;;;;;;;7.63;5.30;;;;;;;8.86;100.00;102769.63;4990441;28;20192;-76
2022/09/21 07:05:11;;;;;;;12.57;5.93;;;;;;;8.99;100.00;102761.81;4995079;28;20194;-77
2022/09/21 07:07:37;;;;;;;6.07;5.20;;;;;;;9.12;100.00;102761.72;4993980;28;20565;-76
2022/09/21 07:10:03;;;;;;;6.97;5.53;;;;;;;9.24;100.00;102759.88;4991455;28;20191;-77
2022/09/21 07:12:33;;;;;;;7.77;5.63;;;;;;;9.33;100.00;102759.47;4982839;28;20712;-76
2022/09/21 07:14:59;;;;;;;8.57;5.80;;;;;;;9.41;100.00;102756.56;4976694;28;20245;-75
2022/09/21 07:17:24;;;;;;;11.43;6.23;;;;;;;9.51;100.00;102760.50;4971974;28;20371;-78
2022/09/21 07:19:50;;;;;;;20.20;5.97;;;;;;;9.61;100.00;102760.19;4974162;28;20203;-76
2022/09/21 07:22:15;;;;;;;10.07;6.17;;;;;;;9.72;100.00;102759.97;4973521;28;20602;-76
2022/09/21 07:24:41;;;;;;;10.50;6.47;;;;;;;9.82;100.00;102764.75;4980627;28;20195;-76
2022/09/21 07:27:06;;;;;;;11.13;7.13;;;;;;;10.08;99.41;102761.94;4982660;28;20207;-76
2022/09/21 07:29:32;;;;;;;9.53;6.73;;;;;;;10.28;98.97;102762.97;4963377;28;20223;-77
2022/09/21 07:31:57;;;;;;;11.13;8.30;;;;;;;10.27;98.30;102768.91;4987011;28;20234;-76
2022/09/21 07:34:22;;;;;;;11.97;9.77;;;;;;;10.41;98.57;102761.09;4991196;28;20548;-77
2022/09/21 07:36:48;;;;;;;9.63;8.67;;;;;;;10.49;97.57;102771.72;4988284;28;20220;-76
2022/09/21 07:39:13;;;;;;;18.40;9.80;;;;;;;10.65;96.88;102774.28;4989679;28;20580;-76
2022/09/21 07:41:39;;;;;;;10.20;8.87;;;;;;;10.97;96.55;102766.47;4994837;28;20350;-77
2022/09/21 07:44:04;;;;;;;13.13;9.73;;;;;;;11.14;95.11;102773.28;4996836;28;20226;-76
2022/09/21 07:46:30;;;;;;;15.20;11.20;;;;;;;11.29;94.48;102774.91;4996466;28;20184;-77
2022/09/21 07:48:56;;;;;;;17.13;11.60;;;;;;;11.32;93.38;102766.47;4996480;28;20309;-77
2022/09/21 07:51:22;;;;;;;16.60;12.10;;;;;;;11.55;92.64;102765.84;4995100;28;20274;-76
2022/09/21 07:53:54;;;;;;;15.47;11.20;;;;;;;11.72;91.50;102764.97;4984805;28;20194;-75
2022/09/21 07:56:19;;;;;;;13.90;11.27;;;;;;;12.11;90.74;102759.03;4985805;28;20816;-76
2022/09/21 08:01:29;;;;;;;15.10;10.97;;;;;;;12.00;89.26;102767.97;4995130;28;20310;-77
2022/09/21 08:03:56;;;;;;;15.43;12.20;;;;;;;12.12;89.49;102761.69;5004218;28;20230;-76
2022/09/21 08:06:24;;;;;;;14.27;10.67;;;;;;;12.62;88.49;102766.41;5001434;28;20193;-77
2022/09/21 08:08:50;;;;;;;15.97;10.57;;;;;;;12.91;87.54;102769.38;5003100;28;20237;-76
2022/09/21 08:11:18;;;;;;;14.30;10.33;;;;;;;13.08;86.56;102767.50;4998376;28;20700;-77
2022/09/21 08:13:44;;;;;;;12.13;9.33;;;;;;;13.58;85.13;102765.22;5013539;28;20573;-77
2022/09/21 08:16:10;;;;;;;13.70;9.60;;;;;;;13.82;85.03;102767.84;4996130;28;20198;-77
2022/09/21 08:18:37;;;;;;;12.80;9.30;;;;;;;14.03;83.67;102768.59;4999805;28;20211;-77
2022/09/21 08:21:03;;;;;;;13.70;9.50;;;;;;;14.31;82.23;102767.13;4999420;28;20286;-77
2022/09/21 08:23:29;;;;;;;11.13;8.40;;;;;;;14.38;81.65;102769.09;4996283;28;20195;-76
2022/09/21 08:26:01;;;;;;;14.10;8.83;;;;;;;14.20;81.67;102762.38;4989201;28;20204;-77
2022/09/21 08:28:29;;;;;;;11.87;9.00;;;;;;;14.70;80.64;102773.66;4976890;28;20886;-77
2022/09/21 08:30:59;;;;;;;14.00;8.37;;;;;;;15.02;79.99;102766.97;4995876;28;20230;-76
2022/09/21 08:33:26;;;;;;;10.97;8.23;;;;;;;15.32;79.77;102762.75;4988131;28;20272;-76
2022/09/21 08:35:55;;;;;;;11.90;8.43;;;;;;;15.25;78.02;102761.72;5001063;28;20420;-76
2022/09/21 08:38:21;;;;;;;10.00;8.67;;;;;;;15.39;76.81;102762.16;4991699;28;20218;-77
2022/09/21 08:40:48;;;;;;;11.60;8.70;;;;;;;15.54;75.82;102765.19;4999376;28;20203;-75
2022/09/21 08:43:37;;;;;;;7.73;5.50;;;;;;;15.90;73.81;102762.00;4994934;28;20820;-75
2022/09/21 08:46:09;;;;;;;7.97;4.80;;;;;;;16.13;71.59;102753.19;5002030;28;20549;-75
2022/09/21 08:48:41;;;;;;;9.87;5.93;;;;;;;16.66;71.47;102752.91;4991924;28;20210;-76
2022/09/21 08:51:12;;;;;;;10.10;6.70;;;;;;;16.68;69.84;102761.59;4986428;28;20248;-76
2022/09/21 08:53:44;;;;;;;9.97;6.27;;;;;;;17.26;69.92;102750.88;4984738;28;20598;-76
2022/09/21 08:56:12;;;;;;;6.80;4.30;;;;;;;17.49;68.07;102758.38;4993854;28;20228;-76
2022/09/21 08:58:40;;;;;;;7.23;4.50;;;;;;;17.85;67.53;102756.56;5012370;28;20238;-76
2022/09/21 09:01:18;;;;;;;5.40;3.73;;;;;;;18.29;65.64;102754.84;4977627;28;20770;-75
2022/09/21 09:04:03;;;;;;;3.72;3.08;;;;;;;18.55;64.45;102757.09;4993882;28;20195;-75
2022/09/21 09:06:56;;;;;;;4.63;2.88;;;;;;;18.93;62.66;102758.59;4996828;28;20194;-74
2022/09/21 09:09:28;;;;;;;5.55;3.40;;;;;;;19.34;60.73;102760.13;4987313;28;20557;-73
2022/09/21 09:12:01;;;;;;;5.43;3.65;;;;;;;19.93;60.10;102745.31;4996982;28;20656;-72
2022/09/21 09:14:47;;;;;;;5.72;3.10;;;;;;;21.72;54.16;102737.31;4981053;28;20598;-71
2022/09/21 09:17:40;;;;;;;3.20;2.70;;;;;;;25.51;44.26;102729.03;4991561;28;20211;-72
2022/09/21 09:20:20;;;;;;;3.15;2.83;;;;;;;27.74;37.57;102714.81;4996159;28;20317;-72
2022/09/21 09:23:16;;;;;;;4.60;2.40;;;;;;;29.76;34.96;102715.81;4989730;28;20196;-71
2022/09/21 09:25:48;;;;;;;2.28;1.92;;;;;;;30.64;32.92;102714.72;4985191;28;20214;-73
2022/09/21 09:28:23;;;;;;;3.00;1.77;;;;;;;30.88;32.34;102713.06;4978997;28;20188;-72
2022/09/21 09:30:56;;;;;;;2.58;1.52;;;;;;;31.46;31.31;102708.28;4991440;28;20212;-73
2022/09/21 09:33:27;;;;;;;2.88;1.70;;;;;;;32.03;30.14;102707.84;4978809;28;20223;-71
2022/09/21 09:35:58;;;;;;;3.28;1.30;;;;;;;32.81;28.62;102699.28;4993263;28;20218;-75
2022/09/21 09:38:32;;;;;;;1.95;1.10;;;;;;;33.28;27.15;102696.25;4975434;28;20216;-75
2022/09/21 09:41:15;;;;;;;0.90;0.82;;;;;;;33.39;27.45;102706.44;4986726;28;20683;-74
2022/09/21 09:43:47;;;;;;;0.80;0.80;;;;;;;33.77;27.40;102703.72;4978132;28;20195;-75
2022/09/21 09:46:49;;;;;;;1.10;1.00;;;;;;;34.63;25.84;102702.13;4988190;28;20188;-74
2022/09/21 09:49:21;;;;;;;0.88;0.80;;;;;;;35.20;24.75;102693.78;4983476;28;20221;-74
2022/09/21 09:51:47;;;;;;;1.70;1.50;;;;;;;30.26;30.38;102711.63;4976212;28;20208;-75
2022/09/21 09:54:16;;;;;;;3.22;1.52;;;;;;;34.17;26.96;102697.38;4980569;28;20187;-75
2022/09/21 09:56:42;;;;;;;1.75;1.48;;;;;;;35.31;25.58;102692.28;4987120;28;20680;-74
2022/09/21 09:59:17;;;;;;;1.63;1.40;;;;;;;35.85;24.57;102691.94;4980477;28;20542;-75
2022/09/21 10:01:48;;;;;;;3.53;1.50;;;;;;;35.91;23.88;102691.56;4977581;28;20274;-76
2022/09/21 10:04:16;;;;;;;2.88;1.60;;;;;;;36.07;23.56;102684.44;4988757;28;20219;-75
2022/09/21 10:06:43;;;;;;;1.75;1.52;;;;;;;35.60;23.63;102691.53;4989929;28;20191;-76
2022/09/21 10:09:33;;;;;;;2.70;1.42;;;;;;;36.96;23.23;102682.63;4989893;28;20191;-76
2022/09/21 10:12:21;;;;;;;2.90;1.30;;;;;;;37.20;22.41;102684.75;4995797;28;20243;-76
2022/09/21 10:14:50;;;;;;;1.60;1.50;;;;;;;37.76;22.15;102688.25;4990341;28;20201;-75
2022/09/21 10:17:17;;;;;;;1.35;1.25;;;;;;;38.02;22.38;102684.75;4989490;28;20215;-75
2022/09/21 10:19:43;;;;;;;1.90;1.30;;;;;;;37.94;22.19;102687.06;4995303;28;20403;-76
2022/09/21 10:22:16;;;;;;;1.60;1.30;;;;;;;38.55;21.77;102678.47;4984419;28;20206;-76
2022/09/21 10:24:47;;;;;;;2.45;1.40;;;;;;;39.07;20.69;102674.78;4995359;28;20695;-76
2022/09/21 10:27:15;;;;;;;2.00;1.50;;;;;;;39.37;20.81;102667.25;4996033;28;20186;-76
2022/09/21 10:29:46;;;;;;;1.77;1.48;;;;;;;39.34;20.09;102672.84;4988245;28;20219;-76
2022/09/21 10:32:12;;;;;;;2.03;1.42;;;;;;;38.82;19.58;102672.09;4964117;28;20626;-76
2022/09/21 10:34:40;;;;;;;1.60;1.50;;;;;;;39.47;20.71;102665.63;4982352;28;20188;-75
2022/09/21 10:37:27;;;;;;;4.75;1.77;;;;;;;39.50;18.81;102662.69;4989305;28;20321;-77
2022/09/21 10:39:53;;;;;;;2.83;1.77;;;;;;;39.70;19.24;102666.59;4983704;28;20277;-77
2022/09/21 10:42:20;;;;;;;3.05;1.60;;;;;;;38.85;19.88;102673.69;4994668;28;20293;-76
2022/09/21 10:44:51;;;;;;;2.25;1.50;;;;;;;39.27;20.06;102673.38;4985062;28;20200;-76
2022/09/21 10:47:28;;;;;;;2.53;1.45;;;;;;;39.27;19.25;102668.84;4998121;28;20205;-76
2022/09/21 10:49:56;;;;;;;1.80;1.60;;;;;;;39.00;20.21;102665.47;4995278;28;20199;-77
2022/09/21 10:52:30;;;;;;;2.00;1.73;;;;;;;39.08;18.88;102671.13;4995442;28;20651;-77
2022/09/21 10:54:56;;;;;;;1.95;1.65;;;;;;;39.47;19.01;102660.25;5000672;28;20202;-76
2022/09/21 10:57:24;;;;;;;1.83;1.50;;;;;;;38.43;19.24;102666.75;4993152;28;20210;-76
2022/09/21 10:59:50;;;;;;;1.90;1.67;;;;;;;39.13;19.26;102662.75;4972140;28;20234;-77
2022/09/21 11:02:37;;;;;;;2.28;1.40;;;;;;;39.34;19.70;102654.06;4985323;28;20630;-76
2022/09/21 11:05:13;;;;;;;2.40;1.63;;;;;;;39.52;18.96;102654.53;4992420;28;20563;-76
2022/09/21 11:07:46;;;;;;;1.50;1.40;;;;;;;40.03;18.75;102656.94;4990851;28;20177;-76
2022/09/21 11:10:41;;;;;;;4.00;1.58;;;;;;;40.29;18.45;102655.00;4994927;28;20210;-76
2022/09/21 11:13:16;;;;;;;1.60;1.13;;;;;;;38.46;19.13;102653.19;5011659;28;20186;-76
2022/09/21 11:15:59;;;;;;;4.57;1.73;;;;;;;38.82;20.38;102657.81;4998756;28;20195;-76
2022/09/21 11:19:00;;;;;;;2.63;1.80;;;;;;;40.00;18.88;102651.78;4988531;28;20218;-76
2022/09/21 11:21:35;;;;;;;2.42;1.38;;;;;;;39.66;19.07;102654.38;4980870;28;20223;-77
2022/09/21 11:24:03;;;;;;;2.17;1.70;;;;;;;39.50;19.08;102651.97;4992424;28;20659;-76
2022/09/21 11:26:53;;;;;;;1.35;1.20;;;;;;;39.69;18.32;102656.84;5000325;28;20337;-76
2022/09/21 11:29:38;;;;;;;1.58;1.40;;;;;;;39.52;18.72;102652.72;5009989;28;20547;-76
2022/09/21 11:32:10;;;;;;;2.97;1.90;;;;;;;38.59;19.15;102655.88;5000448;28;20245;-76
2022/09/21 11:34:59;;;;;;;1.42;1.25;;;;;;;37.85;20.04;102660.00;4991879;28;20642;-76
2022/09/21 11:37:46;;;;;;;2.72;1.38;;;;;;;35.97;21.95;102659.19;4990856;28;20208;-76
2022/09/21 11:40:49;;;;;;;1.77;1.50;;;;;;;33.47;24.71;102669.72;4988551;28;20227;-76
2022/09/21 11:43:30;;;;;;;1.52;1.20;;;;;;;31.52;26.97;102672.72;4990382;28;20650;-75